EDT,Max TemperatureF,Mean TemperatureF,Min TemperatureF,Max Dew PointF,MeanDew PointF,Min DewpointF,Max Humidity, Mean Humidity, Min Humidity, Max Sea Level PressureIn, Mean Sea Level PressureIn, Min Sea Level PressureIn, Max VisibilityMiles, Mean VisibilityMiles, Min VisibilityMiles, Max Wind SpeedMPH, Mean Wind SpeedMPH, Max Gust SpeedMPH,PrecipitationIn, CloudCover, Events, WindDirDegrees
2013-4-1,37,31,24,28,18,11,63,50,37,30.12,29.93,29.71,10,9,2,28,15,33,T,6,Snow,301
2013-4-2,43,32,21,17,14,10,81,57,32,30.26,30.16,30.11,10,10,10,25,11,32,0.00,3,,284
2013-4-3,42,31,20,17,13,11,68,51,33,30.46,30.37,30.27,10,10,10,20,6,25,0.00,0,,302
2013-4-4,57,44,30,24,16,12,53,37,20,30.36,30.14,29.96,10,10,10,18,10,25,0.00,1,,227
2013-4-5,48,39,30,30,21,13,82,55,28,30.23,30.12,29.96,10,10,8,17,8,23,0.00,1,,8
2013-4-6,54,41,27,23,20,16,75,52,29,30.25,30.10,29.75,10,10,10,25,14,32,0.00,6,,147
2013-4-7,58,44,29,46,35,23,82,56,29,30.06,29.81,29.57,10,10,7,30,13,39,T,7,,260
2013-4-8,61,45,29,51,39,25,89,73,56,30.07,29.87,29.68,10,6,2,26,10,36,0.29,5,Rain,150
2013-4-9,52,47,41,45,41,37,89,80,71,30.10,30.00,29.90,10,5,2,17,8,21,1.17,8,Rain-Thunderstorm,70
2013-4-10,42,40,38,39,37,32,92,86,79,30.04,29.99,29.88,10,5,1,30,12,36,0.91,8,Rain-Thunderstorm,37
2013-4-11,39,38,36,34,33,32,92,87,82,30.04,29.92,29.69,10,6,2,26,15,31,0.64,8,Rain-Thunderstorm,71
2013-4-12,45,40,35,37,34,32,92,81,70,29.76,29.66,29.57,10,8,2,21,9,28,0.33,8,Rain,256
2013-4-13,42,39,35,37,31,24,89,72,54,30.00,29.82,29.75,10,8,0,30,13,38,0.09,8,Rain-Snow,257
2013-4-14,48,40,32,33,29,25,82,67,51,30.13,30.05,29.95,10,10,10,17,7,23,0.01,4,Rain,177
2013-4-15,69,56,42,54,44,32,76,63,49,29.94,29.90,29.86,10,10,10,22,12,30,0.01,3,Rain,175
2013-4-16,60,52,44,55,42,33,100,70,40,30.26,30.03,29.87,10,9,2,22,10,28,0.08,6,Rain,290
2013-4-17,59,49,39,43,35,30,83,63,43,30.39,30.26,30.05,10,9,5,22,10,30,0.46,4,Rain-Thunderstorm,77
2013-4-18,77,62,46,62,52,41,90,75,60,30.00,29.71,29.56,10,8,2,30,13,39,0.56,7,Rain-Thunderstorm,181
2013-4-19,61,48,34,57,37,27,93,73,53,29.74,29.52,29.34,10,7,1,30,18,40,0.75,8,Rain-Snow,242
2013-4-20,39,34,28,28,21,16,78,65,51,30.47,30.11,29.75,10,10,9,26,14,33,T,6,Snow,284
2013-4-21,50,37,23,26,23,20,88,62,36,30.64,30.55,30.48,10,10,9,16,6,24,0.00,0,,146
2013-4-22,63,48,32,33,28,23,76,50,23,30.48,30.34,30.20,10,10,9,15,7,17,0.00,0,,142
2013-4-23,69,55,41,52,42,31,93,65,37,30.18,29.97,29.83,10,8,4,23,11,35,0.30,5,Rain,191
2013-4-24,46,41,35,43,34,25,92,72,51,30.13,29.89,29.79,10,6,1,21,10,25,0.38,7,Rain-Snow,319
2013-4-25,51,44,36,37,31,25,75,61,46,30.35,30.15,30.07,10,10,4,28,11,33,0.05,4,Rain,242
2013-4-26,61,45,28,36,31,25,85,60,35,30.45,30.38,30.32,10,10,10,17,7,23,0.00,0,,197
2013-4-27,72,58,44,41,35,31,65,45,25,30.34,30.25,30.12,10,10,10,15,8,20,0.00,0,,176
2013-4-28,64,56,47,52,47,34,93,71,48,30.11,29.93,29.85,10,6,2,15,6,21,0.13,8,Rain,107
2013-4-29,71,62,53,53,52,50,93,72,51,29.94,29.89,29.84,10,5,0,12,5,14,0.00,7,Fog,258
2013-4-30,74,64,54,55,53,50,86,68,49,30.07,29.99,29.94,10,8,2,24,10,30,0.28,3,Rain,171